Time;durP1;ratioP1;P1;durP2;ratioP2;P2;SDS_P1;SDS_P2;PMS_P1;PMS_P2;Temp;Humidity;BMP_temperature;BMP_pressure;BME280_temperature;BME280_humidity;BME280_pressure;Samples;Min_cycle;Max_cycle;Signal;HPM_P1;HPM_P2
2022/07/04 00:00:20;;;;;;;0.10;0.10;;;14.20;99.90;;;;;;4968636;28;20215;-84
2022/07/04 00:02:47;;;;;;;0.10;0.10;;;14.30;99.90;;;;;;4987565;28;20885;-84
2022/07/04 00:05:13;;;;;;;0.10;0.10;;;14.40;99.90;;;;;;4987242;28;20581;-84
2022/07/04 00:07:40;;;;;;;0.10;0.10;;;14.40;99.90;;;;;;4990382;28;20444;-84
2022/07/04 00:10:07;;;;;;;0.10;0.10;;;14.50;99.90;;;;;;4986925;28;20448;-84
2022/07/04 00:12:33;;;;;;;0.10;0.10;;;14.50;99.90;;;;;;4981582;28;20444;-83
2022/07/04 00:14:59;;;;;;;0.10;0.10;;;14.60;99.90;;;;;;4985752;28;20898;-84
2022/07/04 00:17:24;;;;;;;0.10;0.10;;;14.60;99.90;;;;;;4974519;28;20202;-84
2022/07/04 00:19:50;;;;;;;0.10;0.10;;;14.60;99.90;;;;;;4988222;28;20224;-84
2022/07/04 00:22:15;;;;;;;0.10;0.10;;;14.70;99.90;;;;;;4987373;28;20229;-83
2022/07/04 00:24:41;;;;;;;0.10;0.10;;;14.60;99.90;;;;;;4990494;28;20272;-84
2022/07/04 00:27:07;;;;;;;0.10;0.10;;;14.60;99.90;;;;;;4985675;28;20203;-84
2022/07/04 00:29:33;;;;;;;0.10;0.10;;;14.60;99.90;;;;;;4968753;28;20584;-84
2022/07/04 00:31:59;;;;;;;0.10;0.10;;;14.70;99.90;;;;;;4985476;28;20444;-84
2022/07/04 00:34:25;;;;;;;0.10;0.10;;;14.80;99.90;;;;;;4987940;28;20189;-85
2022/07/04 00:36:50;;;;;;;0.10;0.10;;;14.70;99.90;;;;;;4985050;28;20467;-84
2022/07/04 00:39:16;;;;;;;0.10;0.10;;;14.70;99.90;;;;;;4984064;28;20212;-84
2022/07/04 00:41:41;;;;;;;0.10;0.10;;;14.60;99.90;;;;;;4988604;28;20316;-84
2022/07/04 00:44:10;;;;;;;0.10;0.10;;;14.70;99.90;;;;;;4985467;28;20637;-84
2022/07/04 00:46:36;;;;;;;0.10;0.10;;;14.70;99.90;;;;;;4969751;28;20240;-84
2022/07/04 00:49:06;;;;;;;0.10;0.10;;;14.50;99.90;;;;;;4987852;28;20440;-84
2022/07/04 00:51:32;;;;;;;0.10;0.10;;;14.50;99.90;;;;;;4988991;28;20188;-84
2022/07/04 00:53:59;;;;;;;0.10;0.10;;;14.50;99.90;;;;;;4985736;28;20448;-84
2022/07/04 00:56:25;;;;;;;0.10;0.10;;;14.50;99.90;;;;;;4989112;28;20480;-83
2022/07/04 00:58:52;;;;;;;0.10;0.10;;;14.50;99.90;;;;;;4990803;28;20447;-84
2022/07/04 01:01:19;;;;;;;0.10;0.10;;;14.50;99.90;;;;;;4986865;28;20887;-84
2022/07/04 01:03:44;;;;;;;0.10;0.10;;;14.40;99.90;;;;;;4990395;28;20506;-83
2022/07/04 01:06:10;;;;;;;0.10;0.10;;;14.50;99.90;;;;;;4991689;28;20456;-85
2022/07/04 01:08:41;;;;;;;0.10;0.10;;;14.50;99.90;;;;;;4993258;28;20184;-83
2022/07/04 01:11:08;;;;;;;0.10;0.10;;;14.40;99.90;;;;;;4993270;28;20208;-83
2022/07/04 01:13:34;;;;;;;0.10;0.10;;;14.40;99.90;;;;;;4986664;28;20462;-84
2022/07/04 01:16:00;;;;;;;0.10;0.10;;;14.40;99.90;;;;;;4986567;28;20821;-83
2022/07/04 01:18:25;;;;;;;0.10;0.10;;;14.30;99.90;;;;;;4988588;28;20452;-84
2022/07/04 01:20:51;;;;;;;0.10;0.10;;;14.30;99.90;;;;;;4974635;28;20227;-84
2022/07/04 01:23:17;;;;;;;0.10;0.10;;;14.30;99.90;;;;;;4989538;28;20261;-83
2022/07/04 01:25:43;;;;;;;0.10;0.10;;;14.30;99.90;;;;;;4974839;28;20224;-83
2022/07/04 01:28:09;;;;;;;0.10;0.10;;;14.40;99.90;;;;;;4987560;28;20200;-83
2022/07/04 01:30:36;;;;;;;0.10;0.10;;;14.30;99.90;;;;;;4968421;28;20522;-83
2022/07/04 01:33:03;;;;;;;0.10;0.10;;;14.30;99.90;;;;;;4987728;28;20444;-83
2022/07/04 01:35:30;;;;;;;0.10;0.10;;;14.20;99.90;;;;;;4972526;28;20456;-84
2022/07/04 01:37:55;;;;;;;0.10;0.10;;;14.30;99.90;;;;;;4992847;28;20459;-83
2022/07/04 01:40:21;;;;;;;0.10;0.10;;;14.20;99.90;;;;;;4991922;28;20947;-84
2022/07/04 01:42:47;;;;;;;0.10;0.10;;;14.30;99.90;;;;;;4983987;28;20248;-83
2022/07/04 01:45:13;;;;;;;0.10;0.10;;;14.20;99.90;;;;;;4992788;28;20189;-84
2022/07/04 01:47:39;;;;;;;0.10;0.10;;;14.30;99.90;;;;;;4990553;28;20462;-84
2022/07/04 01:50:07;;;;;;;0.10;0.10;;;14.20;99.90;;;;;;4992586;28;20455;-84
2022/07/04 01:52:33;;;;;;;0.10;0.10;;;14.30;99.90;;;;;;4988915;28;20462;-84
2022/07/04 01:54:58;;;;;;;0.10;0.10;;;14.30;99.90;;;;;;4990312;28;20936;-84
2022/07/04 01:57:24;;;;;;;0.10;0.10;;;14.30;99.90;;;;;;4991585;28;20511;-85
2022/07/04 02:02:34;;;;;;;0.10;0.10;;;14.10;99.90;;;;;;4987277;28;20251;-84
2022/07/04 02:04:59;;;;;;;0.10;0.10;;;14.10;99.90;;;;;;4969373;28;20440;-84
2022/07/04 02:07:25;;;;;;;0.10;0.10;;;14.00;99.90;;;;;;4988366;28;20645;-85
2022/07/04 02:09:50;;;;;;;0.10;0.10;;;14.10;99.90;;;;;;4974757;28;20550;-84
2022/07/04 02:15:00;;;;;;;0.10;0.10;;;14.20;99.90;;;;;;4982930;28;20774;-84
2022/07/04 02:17:26;;;;;;;0.20;0.20;;;14.00;99.90;;;;;;4973382;28;20456;-84
2022/07/04 02:19:51;;;;;;;0.10;0.10;;;14.10;99.90;;;;;;4989452;28;20260;-84
2022/07/04 02:22:17;;;;;;;0.10;0.10;;;14.10;99.90;;;;;;4960645;28;20245;-84
2022/07/04 02:24:43;;;;;;;0.10;0.10;;;14.00;99.90;;;;;;4969619;28;20185;-84
2022/07/04 02:27:08;;;;;;;0.10;0.10;;;14.00;99.90;;;;;;4969019;28;20198;-84
2022/07/04 02:29:34;;;;;;;0.10;0.10;;;14.00;99.90;;;;;;4969467;28;20210;-85
2022/07/04 02:32:00;;;;;;;0.10;0.10;;;14.00;99.90;;;;;;4970598;28;20181;-84
2022/07/04 02:34:26;;;;;;;0.10;0.10;;;14.00;99.90;;;;;;4971142;28;20515;-84
2022/07/04 02:36:52;;;;;;;0.10;0.10;;;13.90;99.90;;;;;;4970095;28;20441;-85
2022/07/04 02:39:17;;;;;;;0.10;0.10;;;14.00;99.90;;;;;;4957787;28;20451;-84
2022/07/04 02:41:43;;;;;;;0.20;0.20;;;13.90;99.90;;;;;;4968043;28;20263;-84
2022/07/04 02:44:09;;;;;;;0.10;0.10;;;13.90;99.90;;;;;;4971144;28;20281;-84
2022/07/04 02:46:35;;;;;;;0.10;0.10;;;14.00;99.90;;;;;;4968268;28;20664;-84
2022/07/04 02:49:01;;;;;;;0.20;0.20;;;14.00;99.90;;;;;;4973065;28;20445;-85
2022/07/04 02:51:27;;;;;;;0.10;0.10;;;14.00;99.90;;;;;;4953725;28;20214;-84
2022/07/04 02:53:53;;;;;;;0.10;0.10;;;13.90;99.90;;;;;;4968922;28;20476;-84
2022/07/04 02:56:19;;;;;;;0.10;0.10;;;13.90;99.90;;;;;;4970805;28;20194;-85
2022/07/04 02:58:44;;;;;;;0.10;0.10;;;13.90;99.90;;;;;;4968869;28;20194;-85
2022/07/04 03:01:12;;;;;;;0.10;0.10;;;13.90;99.90;;;;;;4966668;28;20229;-84
2022/07/04 03:03:38;;;;;;;0.10;0.10;;;13.90;99.90;;;;;;4967360;28;20185;-84
2022/07/04 03:06:04;;;;;;;0.10;0.10;;;13.90;99.90;;;;;;4966675;28;20449;-84
2022/07/04 03:08:30;;;;;;;0.10;0.10;;;14.00;99.90;;;;;;4956301;28;20441;-85
2022/07/04 03:10:55;;;;;;;0.10;0.10;;;14.00;99.90;;;;;;4970238;28;20182;-84
2022/07/04 03:13:21;;;;;;;0.10;0.10;;;14.00;99.90;;;;;;4969690;28;20178;-84
2022/07/04 03:15:46;;;;;;;0.10;0.10;;;14.00;99.90;;;;;;4967874;28;20182;-84
2022/07/04 03:18:12;;;;;;;0.10;0.10;;;14.00;99.90;;;;;;4969742;28;20611;-84
2022/07/04 03:20:37;;;;;;;0.10;0.10;;;14.00;99.90;;;;;;4966091;28;20638;-85
2022/07/04 03:23:03;;;;;;;0.10;0.10;;;13.90;99.90;;;;;;4988558;28;20240;-85
2022/07/04 03:25:29;;;;;;;0.10;0.10;;;13.90;99.90;;;;;;4989888;28;20275;-84
2022/07/04 03:27:55;;;;;;;0.10;0.10;;;13.90;99.90;;;;;;4987314;28;20276;-84
2022/07/04 03:30:20;;;;;;;0.10;0.10;;;13.90;99.90;;;;;;4987684;28;20597;-84
2022/07/04 03:32:46;;;;;;;0.10;0.10;;;13.90;99.90;;;;;;4989077;28;20246;-84
2022/07/04 03:35:12;;;;;;;0.10;0.10;;;13.90;99.90;;;;;;4983291;28;20194;-84
2022/07/04 03:37:37;;;;;;;0.10;0.10;;;13.90;99.90;;;;;;4987044;28;20189;-84
2022/07/04 03:40:04;;;;;;;0.10;0.10;;;13.90;99.90;;;;;;4987942;28;20197;-83
2022/07/04 03:42:29;;;;;;;0.10;0.10;;;13.90;99.90;;;;;;4986392;28;20197;-84
2022/07/04 03:44:55;;;;;;;0.10;0.10;;;13.90;99.90;;;;;;4988751;28;20460;-84
2022/07/04 03:47:20;;;;;;;0.10;0.10;;;13.90;99.90;;;;;;4987183;28;20546;-84
2022/07/04 03:49:46;;;;;;;0.10;0.10;;;13.90;99.90;;;;;;4988083;28;20197;-84
2022/07/04 03:52:11;;;;;;;0.10;0.10;;;13.90;99.90;;;;;;4990194;28;20190;-85
2022/07/04 03:54:37;;;;;;;0.10;0.10;;;14.00;99.90;;;;;;4990573;28;20196;-84
2022/07/04 03:57:03;;;;;;;0.10;0.10;;;14.00;99.90;;;;;;4982838;28;20202;-85
2022/07/04 03:59:28;;;;;;;0.10;0.10;;;14.00;99.90;;;;;;4985772;28;20771;-84
2022/07/04 04:01:54;;;;;;;0.10;0.10;;;13.90;99.90;;;;;;4987671;28;20987;-85
2022/07/04 04:07:04;;;;;;;0.10;0.10;;;14.00;99.90;;;;;;4990313;28;20813;-84
2022/07/04 04:09:30;;;;;;;0.10;0.10;;;14.00;99.90;;;;;;4988868;28;20440;-84
2022/07/04 04:11:55;;;;;;;0.10;0.10;;;14.10;99.90;;;;;;4988723;28;20436;-84
2022/07/04 04:14:21;;;;;;;0.10;0.10;;;14.30;99.90;;;;;;4986563;28;20216;-84
2022/07/04 04:16:46;;;;;;;0.10;0.10;;;14.40;99.90;;;;;;4983481;28;20258;-84
2022/07/04 04:19:12;;;;;;;0.10;0.10;;;14.40;99.90;;;;;;4988099;28;20534;-84
2022/07/04 04:21:38;;;;;;;0.10;0.10;;;14.50;99.90;;;;;;4988223;28;20225;-83
2022/07/04 04:24:04;;;;;;;0.10;0.10;;;14.40;99.90;;;;;;4980727;28;20291;-84
2022/07/04 04:26:29;;;;;;;0.10;0.10;;;14.40;99.90;;;;;;4981862;28;20192;-84
2022/07/04 04:28:55;;;;;;;0.10;0.10;;;14.40;99.90;;;;;;4969239;28;20193;-84
2022/07/04 04:31:21;;;;;;;0.10;0.10;;;14.40;99.90;;;;;;4981212;28;20655;-85
2022/07/04 04:33:47;;;;;;;0.10;0.10;;;14.30;99.90;;;;;;4986718;28;20962;-84
2022/07/04 04:36:12;;;;;;;0.10;0.10;;;14.30;99.90;;;;;;4973771;28;20185;-84
2022/07/04 04:38:38;;;;;;;0.10;0.10;;;14.30;99.90;;;;;;4990741;28;20195;-84
2022/07/04 04:41:03;;;;;;;0.10;0.10;;;14.20;99.90;;;;;;4989643;28;20224;-83
2022/07/04 04:43:29;;;;;;;0.10;0.10;;;14.20;99.90;;;;;;4986607;28;20657;-84
2022/07/04 04:45:55;;;;;;;0.10;0.10;;;14.20;99.90;;;;;;4986101;28;20648;-84
2022/07/04 04:48:20;;;;;;;0.10;0.10;;;14.20;99.90;;;;;;4986908;28;20660;-83
2022/07/04 04:50:47;;;;;;;0.10;0.10;;;14.30;99.90;;;;;;4986192;28;20668;-84
2022/07/04 04:53:12;;;;;;;0.10;0.10;;;14.30;99.90;;;;;;4981271;28;20653;-83
2022/07/04 04:55:39;;;;;;;0.10;0.10;;;14.40;99.90;;;;;;4982058;28;20587;-83
2022/07/04 04:58:04;;;;;;;0.13;0.13;;;14.40;99.90;;;;;;4987727;28;20189;-84
2022/07/04 05:00:30;;;;;;;0.10;0.10;;;14.40;99.90;;;;;;4984459;28;20998;-84
2022/07/04 05:02:56;;;;;;;0.10;0.10;;;14.40;99.90;;;;;;4982814;28;20550;-86
2022/07/04 05:05:21;;;;;;;0.10;0.10;;;14.50;99.90;;;;;;4968668;28;20193;-83
2022/07/04 05:07:47;;;;;;;0.10;0.10;;;14.50;99.90;;;;;;4977004;28;20177;-83
2022/07/04 05:10:12;;;;;;;0.10;0.10;;;14.60;99.90;;;;;;4960126;28;20261;-84
2022/07/04 05:12:38;;;;;;;0.20;0.20;;;14.60;99.90;;;;;;4967943;28;20193;-82
2022/07/04 05:15:04;;;;;;;0.10;0.10;;;14.70;99.90;;;;;;4987282;28;20653;-84
2022/07/04 05:17:29;;;;;;;0.10;0.10;;;14.80;99.90;;;;;;4973712;28;20276;-85
2022/07/04 05:19:55;;;;;;;0.10;0.10;;;14.80;99.90;;;;;;4983604;28;20536;-84
2022/07/04 05:22:21;;;;;;;0.10;0.10;;;14.90;99.90;;;;;;4969025;28;20324;-83
2022/07/04 05:24:47;;;;;;;0.10;0.10;;;15.00;99.90;;;;;;4984878;28;20189;-84
2022/07/04 05:27:12;;;;;;;0.10;0.10;;;15.10;99.90;;;;;;4988473;28;20451;-84
2022/07/04 05:29:38;;;;;;;0.10;0.10;;;15.10;99.90;;;;;;4986832;28;20208;-84
2022/07/04 05:32:05;;;;;;;0.10;0.10;;;15.20;99.90;;;;;;4982696;28;21178;-85
2022/07/04 05:34:30;;;;;;;0.10;0.10;;;15.30;99.90;;;;;;4986871;28;20208;-84
2022/07/04 05:36:56;;;;;;;0.10;0.10;;;15.30;99.90;;;;;;4981752;28;20445;-85
2022/07/04 05:39:21;;;;;;;0.10;0.10;;;15.30;99.90;;;;;;4981668;28;20227;-85
2022/07/04 05:41:47;;;;;;;0.10;0.10;;;15.40;99.90;;;;;;4991508;28;20232;-85
2022/07/04 05:44:12;;;;;;;0.10;0.10;;;15.50;99.90;;;;;;4969228;28;20193;-85
2022/07/04 05:46:38;;;;;;;0.10;0.10;;;15.60;99.90;;;;;;4989112;28;20197;-84
2022/07/04 05:49:04;;;;;;;0.10;0.10;;;15.60;99.90;;;;;;4979045;28;20207;-84
2022/07/04 05:51:29;;;;;;;0.10;0.10;;;15.70;99.90;;;;;;4989727;28;20249;-85
2022/07/04 05:53:55;;;;;;;0.10;0.10;;;15.80;99.90;;;;;;4987799;28;20189;-85
2022/07/04 05:56:20;;;;;;;0.10;0.10;;;15.80;99.90;;;;;;4975163;28;20189;-86
2022/07/04 05:58:46;;;;;;;0.10;0.10;;;15.90;99.90;;;;;;4972456;28;20276;-85
2022/07/04 06:01:12;;;;;;;0.10;0.10;;;15.90;99.90;;;;;;4972368;28;20308;-85
2022/07/04 06:03:38;;;;;;;0.10;0.10;;;15.90;99.90;;;;;;4992079;28;20188;-85
2022/07/04 06:06:04;;;;;;;0.10;0.10;;;16.00;99.90;;;;;;4987772;28;20356;-85
2022/07/04 06:08:30;;;;;;;0.10;0.10;;;16.00;99.90;;;;;;4990152;28;20193;-85
2022/07/04 06:10:56;;;;;;;0.10;0.10;;;16.00;99.90;;;;;;4986332;28;20454;-85
2022/07/04 06:13:21;;;;;;;0.10;0.10;;;16.20;99.90;;;;;;4971217;28;20715;-85
2022/07/04 06:15:47;;;;;;;0.10;0.10;;;16.30;99.90;;;;;;4972114;28;20604;-85
2022/07/04 06:18:13;;;;;;;0.10;0.10;;;16.20;99.90;;;;;;4991441;28;20216;-86
2022/07/04 06:20:42;;;;;;;0.10;0.10;;;16.40;99.90;;;;;;4974754;28;20220;-86
2022/07/04 06:23:07;;;;;;;0.10;0.10;;;16.50;99.90;;;;;;4987150;28;20229;-85
2022/07/04 06:25:34;;;;;;;0.10;0.10;;;16.60;99.90;;;;;;4990582;28;20812;-86
2022/07/04 06:28:00;;;;;;;0.10;0.10;;;16.60;99.90;;;;;;4968441;28;20182;-84
2022/07/04 06:30:26;;;;;;;0.10;0.10;;;16.50;99.90;;;;;;4985744;28;20452;-85
2022/07/04 06:32:55;;;;;;;0.10;0.10;;;16.60;99.90;;;;;;4979365;28;20491;-84
2022/07/04 06:38:07;;;;;;;0.10;0.10;;;16.70;99.90;;;;;;4981765;28;20463;-84
2022/07/04 06:40:33;;;;;;;0.10;0.10;;;16.90;99.90;;;;;;4987046;28;20473;-83
2022/07/04 06:42:59;;;;;;;0.10;0.10;;;17.00;99.90;;;;;;4982252;28;20200;-83
2022/07/04 06:45:25;;;;;;;0.10;0.10;;;17.20;99.90;;;;;;4986097;28;20455;-86
2022/07/04 06:47:50;;;;;;;0.10;0.10;;;17.30;99.90;;;;;;4965727;28;20193;-83
2022/07/04 06:50:17;;;;;;;0.10;0.10;;;17.20;99.90;;;;;;4978797;28;20212;-84
2022/07/04 06:52:43;;;;;;;0.10;0.10;;;17.30;99.90;;;;;;4984299;28;20196;-85
2022/07/04 06:55:10;;;;;;;0.10;0.10;;;17.40;99.90;;;;;;4970965;28;20982;-84
2022/07/04 06:57:36;;;;;;;0.10;0.10;;;17.50;99.90;;;;;;4969894;28;20891;-84
2022/07/04 07:00:04;;;;;;;0.10;0.10;;;17.20;99.90;;;;;;4990308;28;21223;-84
2022/07/04 07:02:30;;;;;;;0.10;0.10;;;17.50;99.90;;;;;;4984652;28;20530;-84
2022/07/04 07:04:56;;;;;;;0.10;0.10;;;17.60;99.90;;;;;;4963260;28;20436;-85
2022/07/04 07:07:24;;;;;;;0.10;0.10;;;17.60;99.90;;;;;;4977828;28;20691;-85
2022/07/04 07:09:50;;;;;;;0.10;0.10;;;17.70;99.90;;;;;;4985616;28;20451;-84
2022/07/04 07:12:16;;;;;;;0.10;0.10;;;17.50;99.90;;;;;;4969442;28;20483;-84
2022/07/04 07:14:41;;;;;;;0.10;0.10;;;17.60;99.90;;;;;;4967468;28;20525;-86
2022/07/04 07:17:07;;;;;;;0.10;0.10;;;17.90;99.90;;;;;;4984096;28;20279;-83
2022/07/04 07:19:33;;;;;;;0.10;0.10;;;17.80;99.90;;;;;;4985424;28;20185;-84
2022/07/04 07:21:59;;;;;;;0.10;0.10;;;18.20;99.90;;;;;;4965264;28;21048;-83
2022/07/04 07:24:25;;;;;;;0.10;0.10;;;18.10;99.90;;;;;;4986951;28;20511;-84
2022/07/04 07:26:52;;;;;;;0.10;0.10;;;18.00;99.90;;;;;;4986260;28;20185;-83
2022/07/04 07:29:18;;;;;;;0.10;0.10;;;18.20;99.90;;;;;;4984276;28;20440;-82
2022/07/04 07:31:43;;;;;;;0.10;0.10;;;18.20;99.90;;;;;;4988898;28;20539;-84
2022/07/04 07:34:09;;;;;;;0.10;0.10;;;18.00;99.90;;;;;;4990549;28;21586;-84
2022/07/04 07:36:34;;;;;;;0.10;0.10;;;17.90;99.90;;;;;;4988666;28;20697;-84
2022/07/04 07:39:00;;;;;;;0.10;0.10;;;18.00;99.90;;;;;;4986996;28;20185;-82
2022/07/04 07:41:26;;;;;;;0.10;0.10;;;18.10;99.90;;;;;;4983906;28;20217;-83
2022/07/04 07:43:52;;;;;;;0.10;0.10;;;18.30;99.90;;;;;;4971176;28;20213;-84
2022/07/04 07:46:17;;;;;;;0.10;0.10;;;18.30;99.90;;;;;;4985341;28;20648;-84
2022/07/04 07:48:43;;;;;;;0.10;0.00;;;18.60;99.90;;;;;;4987054;28;20645;-81
2022/07/04 07:51:10;;;;;;;0.10;0.10;;;18.90;99.90;;;;;;4971254;28;20193;-83
2022/07/04 07:53:36;;;;;;;0.10;0.10;;;19.00;99.90;;;;;;4982428;28;20181;-83
2022/07/04 07:56:02;;;;;;;0.10;0.10;;;19.00;99.90;;;;;;4983971;28;20831;-81
2022/07/04 07:58:27;;;;;;;0.10;0.10;;;19.00;99.90;;;;;;4972518;28;20230;-82
2022/07/04 08:00:53;;;;;;;0.10;0.10;;;18.70;99.90;;;;;;4964078;28;20213;-83
2022/07/04 08:06:03;;;;;;;0.10;0.10;;;18.70;99.90;;;;;;4988866;28;20654;-83
2022/07/04 08:08:28;;;;;;;0.10;0.10;;;18.90;99.90;;;;;;4987196;28;20444;-82
2022/07/04 08:10:54;;;;;;;0.10;0.10;;;19.00;99.90;;;;;;4967794;28;20200;-84
2022/07/04 08:13:20;;;;;;;0.10;0.10;;;18.90;99.90;;;;;;4971407;28;20197;-83
2022/07/04 08:15:46;;;;;;;0.10;0.07;;;19.30;99.90;;;;;;4991343;28;20804;-84
2022/07/04 08:18:12;;;;;;;0.10;0.10;;;19.00;99.90;;;;;;4989757;28;20464;-83
2022/07/04 08:20:37;;;;;;;0.10;0.10;;;18.80;99.90;;;;;;4988989;28;20263;-83
2022/07/04 08:23:03;;;;;;;0.10;0.10;;;19.30;99.90;;;;;;4989672;28;20290;-84
2022/07/04 08:25:28;;;;;;;0.10;0.10;;;19.50;99.90;;;;;;4985036;28;20197;-84
2022/07/04 08:27:54;;;;;;;0.10;0.10;;;19.90;99.90;;;;;;4989967;28;20588;-82
2022/07/04 08:30:19;;;;;;;0.10;0.10;;;19.90;99.90;;;;;;4988399;28;20657;-84
2022/07/04 08:32:45;;;;;;;0.10;0.10;;;20.20;99.90;;;;;;4988559;28;20657;-85
2022/07/04 08:35:10;;;;;;;0.10;0.00;;;20.50;99.90;;;;;;4971660;28;20185;-83
2022/07/04 08:37:36;;;;;;;0.10;0.10;;;20.30;99.90;;;;;;4987701;28;20196;-83
2022/07/04 08:40:06;;;;;;;0.10;0.10;;;19.90;99.90;;;;;;4980505;28;20197;-86
2022/07/04 08:42:36;;;;;;;0.10;0.10;;;19.50;99.90;;;;;;4975110;28;20736;-84
2022/07/04 08:45:02;;;;;;;0.10;0.00;;;19.80;99.90;;;;;;4987735;28;20940;-84
2022/07/04 08:47:32;;;;;;;0.10;0.00;;;20.40;99.90;;;;;;4987312;28;20456;-84
2022/07/04 08:50:19;;;;;;;0.10;0.00;;;20.90;99.90;;;;;;4988391;28;20456;-82
2022/07/04 08:52:55;;;;;;;0.10;0.00;;;20.20;99.90;;;;;;4964686;28;20452;-82
2022/07/04 08:58:26;;;;;;;0.10;0.10;;;19.30;99.90;;;;;;4980779;28;20583;-84
2022/07/04 09:00:53;;;;;;;0.10;0.00;;;19.40;99.90;;;;;;4983213;28;20476;-84
2022/07/04 09:03:19;;;;;;;0.10;0.00;;;19.80;99.90;;;;;;4990024;28;20464;-82
2022/07/04 09:05:45;;;;;;;0.10;0.00;;;20.20;99.90;;;;;;4985093;28;20455;-83
2022/07/04 09:08:10;;;;;;;0.10;0.00;;;20.40;99.90;;;;;;4987040;28;20448;-83
2022/07/04 09:10:37;;;;;;;0.10;0.10;;;20.60;99.90;;;;;;4983984;28;20200;-83
2022/07/04 09:13:05;;;;;;;0.10;0.00;;;20.60;99.90;;;;;;4990725;28;20181;-85
2022/07/04 09:15:31;;;;;;;0.10;0.10;;;20.60;99.90;;;;;;4984200;28;20452;-85
2022/07/04 09:17:57;;;;;;;0.10;0.00;;;20.50;99.90;;;;;;4994464;28;20459;-83
2022/07/04 09:20:24;;;;;;;0.10;0.00;;;20.50;99.90;;;;;;4992004;28;20546;-84
2022/07/04 09:22:51;;;;;;;0.10;0.00;;;20.60;99.90;;;;;;4990533;28;20511;-84
2022/07/04 09:25:17;;;;;;;0.10;0.00;;;20.30;99.90;;;;;;4992157;28;21022;-82
2022/07/04 09:27:48;;;;;;;0.10;0.00;;;20.00;99.90;;;;;;4986136;28;20526;-84
2022/07/04 09:30:15;;;;;;;0.10;0.00;;;20.00;99.90;;;;;;4987474;28;20563;-85
2022/07/04 09:32:42;;;;;;;0.10;0.07;;;20.20;99.90;;;;;;4990847;28;20451;-82
2022/07/04 09:35:24;;;;;;;0.10;0.10;;;20.40;99.90;;;;;;4971802;28;20467;-84
2022/07/04 09:37:55;;;;;;;0.10;0.10;;;20.40;99.90;;;;;;4981682;28;20528;-83
2022/07/04 09:40:28;;;;;;;0.10;0.00;;;20.40;99.90;;;;;;4988507;28;20460;-83
2022/07/04 09:42:55;;;;;;;0.10;0.00;;;20.70;99.90;;;;;;4987795;28;20468;-85
2022/07/04 09:45:24;;;;;;;0.10;0.10;;;21.10;99.90;;;;;;4990210;28;20452;-85
2022/07/04 09:47:52;;;;;;;0.10;0.00;;;21.30;99.90;;;;;;4975074;28;20518;-82
2022/07/04 09:50:20;;;;;;;0.10;0.00;;;21.60;99.90;;;;;;4989595;28;20440;-83
2022/07/04 09:53:00;;;;;;;0.10;0.00;;;21.80;99.90;;;;;;4989985;28;20440;-85
2022/07/04 09:55:37;;;;;;;0.10;0.00;;;21.20;99.90;;;;;;4958391;28;20441;-83
2022/07/04 09:58:10;;;;;;;0.10;0.00;;;20.90;99.90;;;;;;4971796;28;20447;-85
2022/07/04 10:00:42;;;;;;;0.10;0.10;;;21.40;99.90;;;;;;4968440;28;20469;-83
2022/07/04 10:03:46;;;;;;;0.10;0.00;;;20.90;99.90;;;;;;4991288;28;20452;-85
2022/07/04 10:06:15;;;;;;;0.10;0.00;;;20.10;99.90;;;;;;4956340;28;20464;-84
2022/07/04 10:08:42;;;;;;;0.10;0.00;;;19.80;99.90;;;;;;4986459;28;20444;-85
2022/07/04 10:11:09;;;;;;;0.10;0.00;;;19.50;99.90;;;;;;4987023;28;20455;-84
2022/07/04 10:13:35;;;;;;;0.10;0.00;;;19.50;99.90;;;;;;4979753;28;20449;-83
2022/07/04 10:16:01;;;;;;;0.10;0.10;;;19.40;99.90;;;;;;4991948;28;20883;-84
2022/07/04 10:18:27;;;;;;;0.10;0.00;;;20.30;99.90;;;;;;4980200;28;20448;-84
2022/07/04 10:20:54;;;;;;;0.10;0.00;;;21.40;99.90;;;;;;4970493;28;20301;-85
2022/07/04 10:23:22;;;;;;;0.10;0.10;;;22.00;99.90;;;;;;4972031;28;20272;-83
2022/07/04 10:25:48;;;;;;;0.10;0.00;;;23.00;99.90;;;;;;4988795;28;20503;-84
2022/07/04 10:28:15;;;;;;;0.10;0.10;;;23.50;99.90;;;;;;4987982;28;20456;-85
2022/07/04 10:30:41;;;;;;;0.10;0.00;;;23.70;99.90;;;;;;4975765;28;20444;-84
2022/07/04 10:33:10;;;;;;;0.10;0.00;;;23.00;99.90;;;;;;4972499;28;20452;-83
2022/07/04 10:35:56;;;;;;;0.10;0.00;;;22.10;99.90;;;;;;4989521;28;20448;-83
2022/07/04 10:38:29;;;;;;;0.10;0.00;;;20.90;99.90;;;;;;4988399;28;20472;-84
2022/07/04 10:41:06;;;;;;;0.10;0.00;;;20.50;99.90;;;;;;4990447;28;20522;-84
2022/07/04 10:43:37;;;;;;;0.10;0.10;;;20.40;99.90;;;;;;4969445;28;20863;-83
2022/07/04 10:46:05;;;;;;;0.10;0.00;;;20.30;99.90;;;;;;4986681;28;20485;-82
2022/07/04 10:48:30;;;;;;;0.10;0.10;;;20.30;99.90;;;;;;4985353;28;20445;-83
2022/07/04 10:51:06;;;;;;;0.00;0.00;;;20.30;99.90;;;;;;4978352;28;20506;-83
2022/07/04 10:53:53;;;;;;;0.10;0.00;;;20.50;99.90;;;;;;4965140;28;20247;-85
2022/07/04 10:56:18;;;;;;;0.10;0.10;;;20.40;99.90;;;;;;4982677;28;20966;-84
2022/07/04 10:58:44;;;;;;;0.10;0.00;;;20.40;99.90;;;;;;4963030;28;20452;-82
2022/07/04 11:01:14;;;;;;;0.00;0.00;;;20.30;99.90;;;;;;4974863;28;20240;-82
2022/07/04 11:03:51;;;;;;;0.00;0.00;;;20.40;99.90;;;;;;4990232;28;20188;-83
2022/07/04 11:06:35;;;;;;;0.00;0.00;;;20.40;99.90;;;;;;4982692;28;20559;-84
2022/07/04 11:09:30;;;;;;;0.00;0.00;;;20.60;99.90;;;;;;4990507;28;20491;-83
2022/07/04 11:12:00;;;;;;;0.00;0.00;;;20.50;99.90;;;;;;4969358;28;20449;-82
2022/07/04 11:14:34;;;;;;;0.00;0.00;;;20.50;99.90;;;;;;4988699;28;20498;-82
2022/07/04 11:17:00;;;;;;;0.00;0.00;;;20.60;99.90;;;;;;4971965;28;20482;-83
2022/07/04 11:19:27;;;;;;;0.00;0.00;;;21.00;99.90;;;;;;4971487;28;20455;-84
2022/07/04 11:21:54;;;;;;;0.00;0.00;;;21.50;99.90;;;;;;4989319;28;20539;-82
2022/07/04 11:24:20;;;;;;;0.00;0.00;;;21.50;99.90;;;;;;4971760;28;20456;-82
2022/07/04 11:26:46;;;;;;;0.00;0.00;;;21.60;99.90;;;;;;4990859;28;20460;-82
2022/07/04 11:29:13;;;;;;;0.00;0.00;;;21.70;99.90;;;;;;4988398;28;20440;-83
2022/07/04 11:31:44;;;;;;;0.00;0.00;;;21.70;99.90;;;;;;4985669;28;20794;-82
2022/07/04 11:34:10;;;;;;;0.00;0.00;;;22.50;99.90;;;;;;4989244;28;20449;-83
2022/07/04 11:36:37;;;;;;;0.00;0.00;;;22.30;99.90;;;;;;4970444;28;20444;-85
2022/07/04 11:39:05;;;;;;;0.00;0.00;;;21.90;99.90;;;;;;4982853;28;21019;-85
2022/07/04 11:47:12;;;;;;;0.00;0.00;;;21.00;99.90;;;;;;4984013;28;20455;-83
2022/07/04 11:49:43;;;;;;;0.00;0.00;;;21.10;99.90;;;;;;4988490;28;20529;-84
2022/07/04 11:52:09;;;;;;;0.00;0.00;;;21.20;99.90;;;;;;4987955;28;20475;-84
2022/07/04 11:54:34;;;;;;;0.00;0.00;;;21.20;99.90;;;;;;4967897;28;20439;-83
2022/07/04 11:57:24;;;;;;;0.00;0.00;;;21.20;99.90;;;;;;4986050;28;20196;-83
2022/07/04 12:00:04;;;;;;;0.00;0.00;;;21.90;99.90;;;;;;4978252;28;20328;-84
2022/07/04 12:02:32;;;;;;;0.00;0.00;;;21.70;99.90;;;;;;4959488;28;20576;-85
2022/07/04 12:04:59;;;;;;;0.00;0.00;;;21.30;99.90;;;;;;4986119;28;20463;-84
2022/07/04 12:07:28;;;;;;;0.00;0.00;;;21.00;99.90;;;;;;4973522;28;20502;-84
2022/07/04 12:09:55;;;;;;;0.00;0.00;;;20.80;99.90;;;;;;4987773;28;21083;-84
2022/07/04 12:12:21;;;;;;;0.00;0.00;;;20.50;99.90;;;;;;4958245;28;20448;-85
2022/07/04 12:15:00;;;;;;;0.00;0.00;;;20.50;99.90;;;;;;4971947;28;20472;-85
2022/07/04 12:17:33;;;;;;;0.00;0.00;;;20.60;99.90;;;;;;4985921;28;20439;-83
2022/07/04 12:20:12;;;;;;;0.00;0.00;;;20.70;99.90;;;;;;4982925;28;20451;-85
2022/07/04 12:22:42;;;;;;;0.00;0.00;;;21.00;99.90;;;;;;4964372;28;20515;-84
2022/07/04 12:25:21;;;;;;;0.00;0.00;;;21.70;99.90;;;;;;4969993;28;20448;-79
2022/07/04 12:27:55;;;;;;;0.00;0.00;;;23.20;99.90;;;;;;4984719;28;20540;-83
2022/07/04 12:30:21;;;;;;;0.00;0.00;;;23.80;99.90;;;;;;4987585;28;21047;-83
2022/07/04 12:32:49;;;;;;;0.00;0.00;;;23.90;99.90;;;;;;4981338;28;20970;-83
2022/07/04 12:35:44;;;;;;;0.00;0.00;;;23.50;99.90;;;;;;4984404;28;20440;-85
2022/07/04 12:38:21;;;;;;;0.00;0.00;;;24.30;99.90;;;;;;4989097;28;20450;-83
2022/07/04 12:41:12;;;;;;;0.00;0.00;;;24.00;99.90;;;;;;4977967;28;20559;-84
2022/07/04 12:43:44;;;;;;;0.00;0.00;;;23.50;99.90;;;;;;4971640;28;20440;-84
2022/07/04 12:46:24;;;;;;;0.00;0.00;;;23.30;99.90;;;;;;4988701;28;20507;-83
2022/07/04 12:48:51;;;;;;;0.00;0.00;;;22.20;99.90;;;;;;4984318;28;20445;-82
2022/07/04 12:51:23;;;;;;;0.00;0.00;;;22.30;99.90;;;;;;4992608;28;20455;-83
2022/07/04 12:53:50;;;;;;;0.00;0.00;;;22.50;99.90;;;;;;4985499;28;20479;-83
2022/07/04 12:56:37;;;;;;;0.00;0.00;;;23.10;99.90;;;;;;4991936;28;20452;-81
2022/07/04 12:59:08;;;;;;;0.00;0.00;;;23.80;99.90;;;;;;4990390;28;20455;-81
2022/07/04 13:01:35;;;;;;;0.00;0.00;;;23.40;99.90;;;;;;4975050;28;20489;-82
2022/07/04 13:04:00;;;;;;;0.00;0.00;;;24.00;99.90;;;;;;4989499;28;20479;-81
2022/07/04 13:06:27;;;;;;;0.00;0.00;;;24.30;99.90;;;;;;4990295;28;20472;-83
2022/07/04 13:08:54;;;;;;;0.00;0.00;;;23.90;99.90;;;;;;4973301;28;20193;-82
2022/07/04 13:14:04;;;;;;;0.00;0.00;;;23.90;99.90;;;;;;4982236;28;20458;-81